Terminal Aerodrome Forecast
Issued by NWS

Home | Current Version | Previous Version | Text Only | Print | Product List | Glossary On
Versions: 1 2 3 4 5 6 7 8 9 10 11 12 13 14 15 16 17 18 19 20 21 22 23 24 25
000
FTUS43 KIND 012000 AAA
TAFLAF
TAF AMD
KLAF 012007Z 0120/0218 17005KT P6SM SCT040 BKN080
      TEMPO 0120/0122 2SM TSRA SCT025 OVC040CB
     FM012200 17005KT P6SM VCTS BKN050CB
     FM020200 VRB02KT P6SM BKN040
     FM020900 VRB02KT 2SM BR SCT040 BKN200
     FM021400 04006KT P6SM BKN060=

USA.gov is the U.S. government's official web portal to all federal, state and local government web resources and services.